sensor_id;sensor_type;location;lat;lon;timestamp;P1;durP1;ratioP1;P2;durP2;ratioP2
77026;SDS011;65956;52.986;17.490;2024-03-08T01:31:12;25.50;;;11.80;;
77026;SDS011;65956;52.986;17.490;2024-03-08T01:33:39;26.10;;;12.60;;
77026;SDS011;65956;52.986;17.490;2024-03-08T01:36:06;31.50;;;13.70;;
77026;SDS011;65956;52.986;17.490;2024-03-08T01:38:32;33.40;;;15.50;;
77026;SDS011;65956;52.986;17.490;2024-03-08T01:40:59;30.70;;;13.70;;
77026;SDS011;65956;52.986;17.490;2024-03-08T01:43:25;30.30;;;13.30;;
77026;SDS011;65956;52.986;17.490;2024-03-08T01:45:57;26.30;;;12.10;;
77026;SDS011;65956;52.986;17.490;2024-03-08T01:48:27;27.30;;;11.70;;
77026;SDS011;65956;52.986;17.490;2024-03-08T01:50:55;25.50;;;12.50;;
77026;SDS011;65956;52.986;17.490;2024-03-08T03:00:11;40.70;;;15.80;;
77026;SDS011;65956;52.986;17.490;2024-03-08T03:02:38;37.70;;;16.70;;
77026;SDS011;65956;52.986;17.490;2024-03-08T03:05:05;51.00;;;20.00;;
77026;SDS011;65956;52.986;17.490;2024-03-08T03:07:32;33.40;;;16.40;;
77026;SDS011;65956;52.986;17.490;2024-03-08T03:10:01;45.00;;;20.70;;
77026;SDS011;65956;52.986;17.490;2024-03-08T03:12:28;80.50;;;41.70;;
77026;SDS011;65956;52.986;17.490;2024-03-08T03:14:55;95.60;;;32.60;;
77026;SDS011;65956;52.986;17.490;2024-03-08T03:17:22;60.40;;;19.80;;
77026;SDS011;65956;52.986;17.490;2024-03-08T03:19:50;77.50;;;25.90;;
77026;SDS011;65956;52.986;17.490;2024-03-08T03:22:21;72.70;;;27.00;;
77026;SDS011;65956;52.986;17.490;2024-03-08T03:24:47;61.20;;;21.60;;
77026;SDS011;65956;52.986;17.490;2024-03-08T03:27:13;60.20;;;21.10;;
77026;SDS011;65956;52.986;17.490;2024-03-08T03:29:41;67.50;;;24.10;;
77026;SDS011;65956;52.986;17.490;2024-03-08T03:32:11;53.40;;;21.20;;
77026;SDS011;65956;52.986;17.490;2024-03-08T03:34:38;54.60;;;20.00;;
77026;SDS011;65956;52.986;17.490;2024-03-08T03:37:05;57.70;;;20.70;;
77026;SDS011;65956;52.986;17.490;2024-03-08T03:39:38;52.20;;;22.80;;
77026;SDS011;65956;52.986;17.490;2024-03-08T03:42:15;112.80;;;51.70;;
77026;SDS011;65956;52.986;17.490;2024-03-08T03:44:45;155.80;;;73.60;;
77026;SDS011;65956;52.986;17.490;2024-03-08T03:47:13;163.70;;;44.60;;
77026;SDS011;65956;52.986;17.490;2024-03-08T03:49:43;159.80;;;43.40;;
77026;SDS011;65956;52.986;17.490;2024-03-08T03:52:09;144.70;;;42.00;;
77026;SDS011;65956;52.986;17.490;2024-03-08T03:54:36;118.90;;;34.80;;
77026;SDS011;65956;52.986;17.490;2024-03-08T03:57:02;86.20;;;30.90;;
77026;SDS011;65956;52.986;17.490;2024-03-08T03:59:28;70.60;;;26.20;;
77026;SDS011;65956;52.986;17.490;2024-03-08T04:01:55;55.40;;;20.70;;
77026;SDS011;65956;52.986;17.490;2024-03-08T04:04:21;52.20;;;19.60;;
77026;SDS011;65956;52.986;17.490;2024-03-08T04:06:49;49.30;;;20.70;;
77026;SDS011;65956;52.986;17.490;2024-03-08T04:09:17;112.30;;;56.30;;
77026;SDS011;65956;52.986;17.490;2024-03-08T04:11:45;169.30;;;83.30;;
77026;SDS011;65956;52.986;17.490;2024-03-08T04:14:11;90.20;;;45.00;;
77026;SDS011;65956;52.986;17.490;2024-03-08T04:16:37;52.90;;;27.40;;
77026;SDS011;65956;52.986;17.490;2024-03-08T04:19:03;52.70;;;28.00;;
77026;SDS011;65956;52.986;17.490;2024-03-08T04:21:30;51.90;;;24.60;;
77026;SDS011;65956;52.986;17.490;2024-03-08T04:23:56;99.90;;;29.20;;
77026;SDS011;65956;52.986;17.490;2024-03-08T04:26:22;96.20;;;30.30;;
77026;SDS011;65956;52.986;17.490;2024-03-08T04:28:48;102.80;;;32.70;;
77026;SDS011;65956;52.986;17.490;2024-03-08T04:31:14;88.50;;;29.20;;
77026;SDS011;65956;52.986;17.490;2024-03-08T04:33:41;65.00;;;23.90;;
77026;SDS011;65956;52.986;17.490;2024-03-08T04:36:07;56.30;;;23.80;;
77026;SDS011;65956;52.986;17.490;2024-03-08T04:38:33;62.20;;;24.00;;
77026;SDS011;65956;52.986;17.490;2024-03-08T04:41:00;64.20;;;24.90;;
77026;SDS011;65956;52.986;17.490;2024-03-08T04:43:27;53.50;;;22.90;;
77026;SDS011;65956;52.986;17.490;2024-03-08T04:45:56;76.70;;;29.20;;
77026;SDS011;65956;52.986;17.490;2024-03-08T04:48:22;80.80;;;30.20;;
77026;SDS011;65956;52.986;17.490;2024-03-08T04:50:48;54.50;;;25.00;;
77026;SDS011;65956;52.986;17.490;2024-03-08T04:53:15;64.00;;;32.60;;
77026;SDS011;65956;52.986;17.490;2024-03-08T04:55:41;86.90;;;38.30;;
77026;SDS011;65956;52.986;17.490;2024-03-08T04:58:07;117.70;;;36.00;;
77026;SDS011;65956;52.986;17.490;2024-03-08T05:00:33;110.40;;;36.80;;
77026;SDS011;65956;52.986;17.490;2024-03-08T05:02:59;136.10;;;42.10;;
77026;SDS011;65956;52.986;17.490;2024-03-08T05:05:25;153.20;;;58.10;;
77026;SDS011;65956;52.986;17.490;2024-03-08T05:07:54;160.40;;;67.30;;
77026;SDS011;65956;52.986;17.490;2024-03-08T05:10:20;126.10;;;47.80;;
77026;SDS011;65956;52.986;17.490;2024-03-08T05:12:46;87.30;;;35.20;;
77026;SDS011;65956;52.986;17.490;2024-03-08T05:15:13;77.60;;;32.00;;
77026;SDS011;65956;52.986;17.490;2024-03-08T05:17:39;77.30;;;33.90;;
77026;SDS011;65956;52.986;17.490;2024-03-08T05:20:06;74.60;;;32.10;;
77026;SDS011;65956;52.986;17.490;2024-03-08T05:22:38;68.10;;;28.50;;
77026;SDS011;65956;52.986;17.490;2024-03-08T05:25:04;60.40;;;26.00;;
77026;SDS011;65956;52.986;17.490;2024-03-08T05:27:30;84.40;;;34.30;;
77026;SDS011;65956;52.986;17.490;2024-03-08T05:29:56;80.10;;;35.50;;
77026;SDS011;65956;52.986;17.490;2024-03-08T05:32:22;99.60;;;44.00;;
77026;SDS011;65956;52.986;17.490;2024-03-08T05:34:50;98.70;;;41.20;;
77026;SDS011;65956;52.986;17.490;2024-03-08T05:37:17;129.20;;;41.90;;
77026;SDS011;65956;52.986;17.490;2024-03-08T05:39:43;97.10;;;38.20;;
77026;SDS011;65956;52.986;17.490;2024-03-08T05:42:10;106.30;;;38.70;;
77026;SDS011;65956;52.986;17.490;2024-03-08T05:44:36;87.30;;;34.30;;
77026;SDS011;65956;52.986;17.490;2024-03-08T05:47:02;89.70;;;34.60;;
77026;SDS011;65956;52.986;17.490;2024-03-08T05:49:28;88.00;;;38.70;;
77026;SDS011;65956;52.986;17.490;2024-03-08T05:51:54;92.60;;;39.90;;
77026;SDS011;65956;52.986;17.490;2024-03-08T05:54:20;74.80;;;32.70;;
77026;SDS011;65956;52.986;17.490;2024-03-08T05:56:50;66.80;;;28.00;;
77026;SDS011;65956;52.986;17.490;2024-03-08T05:59:18;62.70;;;28.00;;
77026;SDS011;65956;52.986;17.490;2024-03-08T06:01:44;62.10;;;28.60;;
77026;SDS011;65956;52.986;17.490;2024-03-08T06:04:11;63.40;;;29.60;;
77026;SDS011;65956;52.986;17.490;2024-03-08T06:06:37;61.80;;;28.50;;
77026;SDS011;65956;52.986;17.490;2024-03-08T06:09:03;72.80;;;35.60;;
77026;SDS011;65956;52.986;17.490;2024-03-08T06:11:37;73.10;;;32.30;;
77026;SDS011;65956;52.986;17.490;2024-03-08T06:14:04;70.60;;;28.30;;
77026;SDS011;65956;52.986;17.490;2024-03-08T06:16:30;57.10;;;26.30;;
77026;SDS011;65956;52.986;17.490;2024-03-08T06:18:56;58.50;;;26.70;;
77026;SDS011;65956;52.986;17.490;2024-03-08T06:21:25;56.20;;;25.40;;
77026;SDS011;65956;52.986;17.490;2024-03-08T06:23:55;57.50;;;26.30;;
77026;SDS011;65956;52.986;17.490;2024-03-08T06:26:23;48.60;;;23.70;;
77026;SDS011;65956;52.986;17.490;2024-03-08T06:28:51;60.20;;;29.00;;
77026;SDS011;65956;52.986;17.490;2024-03-08T06:31:17;51.20;;;27.20;;
77026;SDS011;65956;52.986;17.490;2024-03-08T06:33:43;51.30;;;26.50;;
77026;SDS011;65956;52.986;17.490;2024-03-08T06:36:09;52.20;;;28.00;;
77026;SDS011;65956;52.986;17.490;2024-03-08T06:38:37;54.70;;;28.40;;
77026;SDS011;65956;52.986;17.490;2024-03-08T06:41:08;54.60;;;27.30;;
77026;SDS011;65956;52.986;17.490;2024-03-08T06:43:35;49.20;;;24.60;;
77026;SDS011;65956;52.986;17.490;2024-03-08T06:46:01;45.80;;;24.00;;
77026;SDS011;65956;52.986;17.490;2024-03-08T06:48:29;47.00;;;22.80;;
77026;SDS011;65956;52.986;17.490;2024-03-08T06:50:55;49.70;;;23.80;;
77026;SDS011;65956;52.986;17.490;2024-03-08T06:53:22;45.50;;;20.70;;
77026;SDS011;65956;52.986;17.490;2024-03-08T06:55:48;39.50;;;20.00;;
77026;SDS011;65956;52.986;17.490;2024-03-08T06:58:14;41.30;;;19.80;;
77026;SDS011;65956;52.986;17.490;2024-03-08T07:00:42;40.00;;;19.80;;
77026;SDS011;65956;52.986;17.490;2024-03-08T07:03:09;43.40;;;19.90;;
77026;SDS011;65956;52.986;17.490;2024-03-08T07:05:38;41.10;;;19.00;;
77026;SDS011;65956;52.986;17.490;2024-03-08T07:08:06;37.60;;;20.20;;
77026;SDS011;65956;52.986;17.490;2024-03-08T07:10:32;44.00;;;21.50;;
77026;SDS011;65956;52.986;17.490;2024-03-08T07:12:58;39.70;;;19.90;;
77026;SDS011;65956;52.986;17.490;2024-03-08T07:15:27;50.30;;;25.20;;
77026;SDS011;65956;52.986;17.490;2024-03-08T07:17:54;39.80;;;20.60;;
77026;SDS011;65956;52.986;17.490;2024-03-08T07:20:21;40.60;;;18.90;;
77026;SDS011;65956;52.986;17.490;2024-03-08T07:22:47;40.50;;;19.20;;
77026;SDS011;65956;52.986;17.490;2024-03-08T07:25:14;37.20;;;18.70;;
77026;SDS011;65956;52.986;17.490;2024-03-08T07:27:55;40.60;;;19.10;;
77026;SDS011;65956;52.986;17.490;2024-03-08T07:30:22;36.20;;;18.20;;
77026;SDS011;65956;52.986;17.490;2024-03-08T07:33:07;32.40;;;17.60;;
77026;SDS011;65956;52.986;17.490;2024-03-08T07:35:37;34.70;;;16.70;;
77026;SDS011;65956;52.986;17.490;2024-03-08T07:38:04;35.30;;;16.90;;
77026;SDS011;65956;52.986;17.490;2024-03-08T07:40:31;38.70;;;18.80;;
77026;SDS011;65956;52.986;17.490;2024-03-08T07:43:01;38.60;;;18.40;;
77026;SDS011;65956;52.986;17.490;2024-03-08T07:45:28;36.90;;;19.80;;
77026;SDS011;65956;52.986;17.490;2024-03-08T07:47:54;38.30;;;19.10;;
77026;SDS011;65956;52.986;17.490;2024-03-08T07:50:22;35.90;;;19.40;;
77026;SDS011;65956;52.986;17.490;2024-03-08T07:52:48;39.50;;;19.40;;
77026;SDS011;65956;52.986;17.490;2024-03-08T07:55:14;41.40;;;19.00;;
77026;SDS011;65956;52.986;17.490;2024-03-08T07:57:41;40.30;;;19.60;;
77026;SDS011;65956;52.986;17.490;2024-03-08T08:00:09;38.50;;;18.40;;
77026;SDS011;65956;52.986;17.490;2024-03-08T08:02:36;37.00;;;17.50;;
77026;SDS011;65956;52.986;17.490;2024-03-08T08:05:02;36.20;;;19.00;;
77026;SDS011;65956;52.986;17.490;2024-03-08T08:07:29;34.50;;;16.80;;
77026;SDS011;65956;52.986;17.490;2024-03-08T08:09:55;36.80;;;16.60;;
77026;SDS011;65956;52.986;17.490;2024-03-08T08:12:22;30.30;;;16.40;;
77026;SDS011;65956;52.986;17.490;2024-03-08T08:14:48;36.10;;;19.10;;
77026;SDS011;65956;52.986;17.490;2024-03-08T08:17:14;29.40;;;16.70;;
77026;SDS011;65956;52.986;17.490;2024-03-08T08:19:43;31.30;;;16.80;;
77026;SDS011;65956;52.986;17.490;2024-03-08T08:22:09;35.70;;;16.90;;
77026;SDS011;65956;52.986;17.490;2024-03-08T08:24:35;31.70;;;17.50;;
77026;SDS011;65956;52.986;17.490;2024-03-08T08:27:03;33.40;;;17.40;;
77026;SDS011;65956;52.986;17.490;2024-03-08T08:29:29;36.20;;;17.90;;
77026;SDS011;65956;52.986;17.490;2024-03-08T08:31:58;31.20;;;16.60;;
77026;SDS011;65956;52.986;17.490;2024-03-08T08:34:25;33.10;;;17.30;;
77026;SDS011;65956;52.986;17.490;2024-03-08T08:36:52;32.20;;;17.60;;
77026;SDS011;65956;52.986;17.490;2024-03-08T08:39:19;35.50;;;18.50;;
77026;SDS011;65956;52.986;17.490;2024-03-08T08:41:45;32.60;;;16.70;;
77026;SDS011;65956;52.986;17.490;2024-03-08T08:44:11;35.70;;;17.90;;
77026;SDS011;65956;52.986;17.490;2024-03-08T08:46:38;34.60;;;17.20;;
77026;SDS011;65956;52.986;17.490;2024-03-08T08:49:05;32.10;;;16.70;;
77026;SDS011;65956;52.986;17.490;2024-03-08T08:51:32;34.40;;;17.60;;
77026;SDS011;65956;52.986;17.490;2024-03-08T08:53:59;31.80;;;17.00;;
77026;SDS011;65956;52.986;17.490;2024-03-08T08:56:25;35.40;;;19.00;;
77026;SDS011;65956;52.986;17.490;2024-03-08T08:58:52;29.70;;;16.90;;
77026;SDS011;65956;52.986;17.490;2024-03-08T09:01:21;31.20;;;17.20;;
77026;SDS011;65956;52.986;17.490;2024-03-08T09:03:48;27.50;;;15.50;;
77026;SDS011;65956;52.986;17.490;2024-03-08T09:06:15;30.40;;;17.10;;
77026;SDS011;65956;52.986;17.490;2024-03-08T09:08:42;27.70;;;14.50;;
77026;SDS011;65956;52.986;17.490;2024-03-08T09:11:10;27.10;;;15.20;;
77026;SDS011;65956;52.986;17.490;2024-03-08T09:13:36;32.20;;;16.10;;
77026;SDS011;65956;52.986;17.490;2024-03-08T09:16:02;27.40;;;14.40;;
77026;SDS011;65956;52.986;17.490;2024-03-08T09:18:31;28.50;;;16.00;;
77026;SDS011;65956;52.986;17.490;2024-03-08T09:20:58;27.80;;;16.70;;
77026;SDS011;65956;52.986;17.490;2024-03-08T09:23:25;25.10;;;13.90;;
77026;SDS011;65956;52.986;17.490;2024-03-08T09:25:56;29.60;;;16.40;;
77026;SDS011;65956;52.986;17.490;2024-03-08T09:28:25;28.20;;;14.70;;
77026;SDS011;65956;52.986;17.490;2024-03-08T09:30:53;30.50;;;16.60;;
77026;SDS011;65956;52.986;17.490;2024-03-08T09:33:19;30.60;;;16.70;;
77026;SDS011;65956;52.986;17.490;2024-03-08T09:35:45;27.60;;;15.10;;
77026;SDS011;65956;52.986;17.490;2024-03-08T09:38:12;29.50;;;15.80;;
77026;SDS011;65956;52.986;17.490;2024-03-08T09:40:41;26.30;;;15.20;;
77026;SDS011;65956;52.986;17.490;2024-03-08T09:43:07;26.80;;;15.40;;
77026;SDS011;65956;52.986;17.490;2024-03-08T09:45:35;30.60;;;15.20;;
77026;SDS011;65956;52.986;17.490;2024-03-08T09:48:10;29.60;;;15.30;;
77026;SDS011;65956;52.986;17.490;2024-03-08T09:50:38;29.00;;;14.60;;
77026;SDS011;65956;52.986;17.490;2024-03-08T09:53:06;25.10;;;14.20;;
77026;SDS011;65956;52.986;17.490;2024-03-08T09:55:35;25.90;;;14.80;;
77026;SDS011;65956;52.986;17.490;2024-03-08T09:58:05;29.20;;;14.80;;
77026;SDS011;65956;52.986;17.490;2024-03-08T10:00:43;24.90;;;13.50;;
77026;SDS011;65956;52.986;17.490;2024-03-08T10:03:09;25.30;;;14.40;;
77026;SDS011;65956;52.986;17.490;2024-03-08T10:05:36;27.70;;;15.70;;
77026;SDS011;65956;52.986;17.490;2024-03-08T10:08:02;25.00;;;14.30;;
77026;SDS011;65956;52.986;17.490;2024-03-08T10:10:30;29.00;;;15.30;;
77026;SDS011;65956;52.986;17.490;2024-03-08T10:12:56;24.10;;;13.50;;
77026;SDS011;65956;52.986;17.490;2024-03-08T10:15:23;26.60;;;14.30;;
77026;SDS011;65956;52.986;17.490;2024-03-08T10:17:50;25.60;;;13.20;;
77026;SDS011;65956;52.986;17.490;2024-03-08T10:20:16;24.20;;;14.20;;
77026;SDS011;65956;52.986;17.490;2024-03-08T10:22:44;26.20;;;14.10;;
77026;SDS011;65956;52.986;17.490;2024-03-08T10:25:11;23.70;;;13.70;;
77026;SDS011;65956;52.986;17.490;2024-03-08T10:27:40;24.80;;;14.00;;
77026;SDS011;65956;52.986;17.490;2024-03-08T10:30:16;23.70;;;13.20;;
77026;SDS011;65956;52.986;17.490;2024-03-08T10:32:47;22.60;;;12.20;;
77026;SDS011;65956;52.986;17.490;2024-03-08T10:35:14;26.00;;;13.10;;
77026;SDS011;65956;52.986;17.490;2024-03-08T10:37:44;26.40;;;14.10;;
77026;SDS011;65956;52.986;17.490;2024-03-08T10:40:16;24.20;;;12.90;;
77026;SDS011;65956;52.986;17.490;2024-03-08T10:51:01;23.60;;;12.40;;
77026;SDS011;65956;52.986;17.490;2024-03-08T10:53:28;22.20;;;11.60;;
77026;SDS011;65956;52.986;17.490;2024-03-08T10:55:58;17.00;;;9.80;;
77026;SDS011;65956;52.986;17.490;2024-03-08T10:58:25;24.30;;;11.60;;
77026;SDS011;65956;52.986;17.490;2024-03-08T11:00:53;24.80;;;11.90;;
77026;SDS011;65956;52.986;17.490;2024-03-08T11:06:06;18.50;;;10.30;;
77026;SDS011;65956;52.986;17.490;2024-03-08T11:08:38;17.80;;;8.70;;
77026;SDS011;65956;52.986;17.490;2024-03-08T11:11:04;20.20;;;10.90;;
77026;SDS011;65956;52.986;17.490;2024-03-08T11:13:38;18.40;;;10.20;;
77026;SDS011;65956;52.986;17.490;2024-03-08T11:18:53;19.30;;;10.00;;
77026;SDS011;65956;52.986;17.490;2024-03-08T11:21:20;19.20;;;10.40;;
77026;SDS011;65956;52.986;17.490;2024-03-08T11:23:59;17.80;;;11.30;;
77026;SDS011;65956;52.986;17.490;2024-03-08T11:28:52;17.20;;;9.20;;
77026;SDS011;65956;52.986;17.490;2024-03-08T11:31:22;17.80;;;10.50;;
77026;SDS011;65956;52.986;17.490;2024-03-08T11:33:50;16.40;;;9.60;;
77026;SDS011;65956;52.986;17.490;2024-03-08T11:36:24;17.50;;;9.80;;
77026;SDS011;65956;52.986;17.490;2024-03-08T11:38:53;18.50;;;9.90;;
77026;SDS011;65956;52.986;17.490;2024-03-08T11:41:22;19.40;;;10.80;;
77026;SDS011;65956;52.986;17.490;2024-03-08T11:43:50;18.70;;;10.90;;
77026;SDS011;65956;52.986;17.490;2024-03-08T11:46:30;17.30;;;10.40;;
77026;SDS011;65956;52.986;17.490;2024-03-08T11:48:57;17.70;;;10.10;;
77026;SDS011;65956;52.986;17.490;2024-03-08T11:51:23;17.70;;;10.50;;
77026;SDS011;65956;52.986;17.490;2024-03-08T11:53:49;17.10;;;10.20;;
77026;SDS011;65956;52.986;17.490;2024-03-08T11:56:15;17.40;;;10.00;;
77026;SDS011;65956;52.986;17.490;2024-03-08T11:58:42;16.90;;;10.40;;
77026;SDS011;65956;52.986;17.490;2024-03-08T12:01:20;16.70;;;10.10;;
77026;SDS011;65956;52.986;17.490;2024-03-08T12:03:46;18.80;;;10.60;;
77026;SDS011;65956;52.986;17.490;2024-03-08T12:06:19;15.60;;;10.40;;
77026;SDS011;65956;52.986;17.490;2024-03-08T12:08:48;16.50;;;9.80;;
77026;SDS011;65956;52.986;17.490;2024-03-08T12:11:14;16.90;;;9.80;;
77026;SDS011;65956;52.986;17.490;2024-03-08T12:13:41;29.90;;;14.50;;
77026;SDS011;65956;52.986;17.490;2024-03-08T12:16:07;16.90;;;10.10;;
77026;SDS011;65956;52.986;17.490;2024-03-08T12:18:36;15.50;;;9.60;;
77026;SDS011;65956;52.986;17.490;2024-03-08T12:21:07;16.90;;;10.30;;
77026;SDS011;65956;52.986;17.490;2024-03-08T12:23:36;16.50;;;9.90;;
77026;SDS011;65956;52.986;17.490;2024-03-08T12:26:18;29.80;;;16.80;;
77026;SDS011;65956;52.986;17.490;2024-03-08T12:28:50;18.00;;;11.30;;
77026;SDS011;65956;52.986;17.490;2024-03-08T12:31:16;19.30;;;12.30;;
77026;SDS011;65956;52.986;17.490;2024-03-08T12:33:49;16.90;;;10.70;;
77026;SDS011;65956;52.986;17.490;2024-03-08T12:36:16;17.30;;;11.30;;
77026;SDS011;65956;52.986;17.490;2024-03-08T12:38:44;15.80;;;10.50;;
77026;SDS011;65956;52.986;17.490;2024-03-08T12:43:47;18.40;;;12.00;;
77026;SDS011;65956;52.986;17.490;2024-03-08T12:46:17;19.80;;;13.50;;
77026;SDS011;65956;52.986;17.490;2024-03-08T12:48:46;19.20;;;12.90;;
77026;SDS011;65956;52.986;17.490;2024-03-08T12:51:16;15.30;;;11.60;;
77026;SDS011;65956;52.986;17.490;2024-03-08T12:53:44;16.50;;;13.50;;
77026;SDS011;65956;52.986;17.490;2024-03-08T12:56:11;16.00;;;12.30;;
77026;SDS011;65956;52.986;17.490;2024-03-08T12:58:54;15.40;;;12.80;;
77026;SDS011;65956;52.986;17.490;2024-03-08T13:01:20;14.40;;;12.90;;
77026;SDS011;65956;52.986;17.490;2024-03-08T13:03:47;16.00;;;14.30;;
77026;SDS011;65956;52.986;17.490;2024-03-08T13:06:15;15.30;;;13.70;;
77026;SDS011;65956;52.986;17.490;2024-03-08T13:08:41;20.50;;;16.40;;
77026;SDS011;65956;52.986;17.490;2024-03-08T13:11:09;15.40;;;12.80;;
77026;SDS011;65956;52.986;17.490;2024-03-08T13:13:40;14.10;;;12.50;;
77026;SDS011;65956;52.986;17.490;2024-03-08T13:16:06;14.00;;;12.30;;
77026;SDS011;65956;52.986;17.490;2024-03-08T13:18:38;12.90;;;11.50;;
77026;SDS011;65956;52.986;17.490;2024-03-08T13:21:04;13.60;;;11.60;;
77026;SDS011;65956;52.986;17.490;2024-03-08T13:23:36;13.80;;;11.70;;
77026;SDS011;65956;52.986;17.490;2024-03-08T13:26:07;13.30;;;11.90;;
77026;SDS011;65956;52.986;17.490;2024-03-08T13:28:33;14.90;;;11.80;;
77026;SDS011;65956;52.986;17.490;2024-03-08T13:31:04;13.30;;;10.70;;
77026;SDS011;65956;52.986;17.490;2024-03-08T13:33:36;12.80;;;11.20;;
77026;SDS011;65956;52.986;17.490;2024-03-08T13:36:07;13.90;;;12.50;;
77026;SDS011;65956;52.986;17.490;2024-03-08T13:38:44;12.90;;;10.70;;
77026;SDS011;65956;52.986;17.490;2024-03-08T13:41:14;14.00;;;11.70;;
77026;SDS011;65956;52.986;17.490;2024-03-08T13:43:46;13.90;;;12.10;;
77026;SDS011;65956;52.986;17.490;2024-03-08T13:46:16;15.50;;;12.80;;
77026;SDS011;65956;52.986;17.490;2024-03-08T13:48:43;15.20;;;13.10;;
77026;SDS011;65956;52.986;17.490;2024-03-08T13:51:09;14.30;;;11.10;;
77026;SDS011;65956;52.986;17.490;2024-03-08T13:53:41;13.60;;;10.90;;
77026;SDS011;65956;52.986;17.490;2024-03-08T13:56:07;15.20;;;12.70;;
77026;SDS011;65956;52.986;17.490;2024-03-08T13:58:36;12.60;;;10.80;;
77026;SDS011;65956;52.986;17.490;2024-03-08T14:01:02;10.50;;;9.00;;
77026;SDS011;65956;52.986;17.490;2024-03-08T14:03:31;11.00;;;9.30;;
77026;SDS011;65956;52.986;17.490;2024-03-08T14:05:58;12.90;;;11.00;;
77026;SDS011;65956;52.986;17.490;2024-03-08T14:08:26;12.80;;;10.30;;
77026;SDS011;65956;52.986;17.490;2024-03-08T14:10:53;13.00;;;10.70;;
77026;SDS011;65956;52.986;17.490;2024-03-08T14:13:19;13.70;;;10.70;;
77026;SDS011;65956;52.986;17.490;2024-03-08T14:15:46;13.40;;;10.60;;
77026;SDS011;65956;52.986;17.490;2024-03-08T14:18:14;15.10;;;10.50;;
77026;SDS011;65956;52.986;17.490;2024-03-08T14:20:41;14.80;;;11.50;;
77026;SDS011;65956;52.986;17.490;2024-03-08T14:23:07;19.90;;;15.00;;
77026;SDS011;65956;52.986;17.490;2024-03-08T14:25:34;15.10;;;11.70;;
77026;SDS011;65956;52.986;17.490;2024-03-08T14:28:00;18.30;;;12.90;;
77026;SDS011;65956;52.986;17.490;2024-03-08T14:30:30;16.20;;;10.10;;
77026;SDS011;65956;52.986;17.490;2024-03-08T14:33:09;11.90;;;9.30;;
77026;SDS011;65956;52.986;17.490;2024-03-08T14:35:35;14.00;;;10.10;;
77026;SDS011;65956;52.986;17.490;2024-03-08T14:38:02;14.40;;;12.00;;
77026;SDS011;65956;52.986;17.490;2024-03-08T14:40:29;14.40;;;11.70;;
77026;SDS011;65956;52.986;17.490;2024-03-08T14:42:56;17.50;;;12.50;;
77026;SDS011;65956;52.986;17.490;2024-03-08T14:45:22;14.40;;;11.40;;
77026;SDS011;65956;52.986;17.490;2024-03-08T14:47:50;15.30;;;11.70;;
77026;SDS011;65956;52.986;17.490;2024-03-08T14:50:17;13.60;;;11.00;;
77026;SDS011;65956;52.986;17.490;2024-03-08T14:52:44;12.50;;;11.10;;
77026;SDS011;65956;52.986;17.490;2024-03-08T14:57:45;16.40;;;10.90;;
77026;SDS011;65956;52.986;17.490;2024-03-08T15:00:12;17.20;;;11.40;;
77026;SDS011;65956;52.986;17.490;2024-03-08T15:02:57;14.10;;;11.20;;
77026;SDS011;65956;52.986;17.490;2024-03-08T15:05:23;15.40;;;11.30;;
77026;SDS011;65956;52.986;17.490;2024-03-08T15:07:52;17.90;;;13.10;;
77026;SDS011;65956;52.986;17.490;2024-03-08T15:10:22;15.40;;;11.20;;
77026;SDS011;65956;52.986;17.490;2024-03-08T15:12:52;14.00;;;11.20;;
77026;SDS011;65956;52.986;17.490;2024-03-08T15:15:22;16.70;;;12.10;;
77026;SDS011;65956;52.986;17.490;2024-03-08T15:17:50;17.40;;;12.00;;
77026;SDS011;65956;52.986;17.490;2024-03-08T15:20:17;14.80;;;11.40;;
77026;SDS011;65956;52.986;17.490;2024-03-08T15:22:49;15.70;;;11.20;;
77026;SDS011;65956;52.986;17.490;2024-03-08T15:25:17;14.90;;;11.70;;
77026;SDS011;65956;52.986;17.490;2024-03-08T15:27:54;17.40;;;11.60;;
77026;SDS011;65956;52.986;17.490;2024-03-08T15:30:21;16.30;;;12.10;;
77026;SDS011;65956;52.986;17.490;2024-03-08T15:32:52;15.00;;;11.60;;
77026;SDS011;65956;52.986;17.490;2024-03-08T15:35:26;15.30;;;11.70;;
77026;SDS011;65956;52.986;17.490;2024-03-08T15:37:53;16.30;;;12.80;;
77026;SDS011;65956;52.986;17.490;2024-03-08T15:40:23;19.70;;;12.90;;
77026;SDS011;65956;52.986;17.490;2024-03-08T15:45:20;17.10;;;13.60;;
77026;SDS011;65956;52.986;17.490;2024-03-08T15:47:52;22.50;;;14.00;;
77026;SDS011;65956;52.986;17.490;2024-03-08T15:50:19;19.10;;;14.00;;
77026;SDS011;65956;52.986;17.490;2024-03-08T15:52:49;22.40;;;15.10;;
77026;SDS011;65956;52.986;17.490;2024-03-08T15:55:16;20.40;;;14.10;;
77026;SDS011;65956;52.986;17.490;2024-03-08T15:57:48;22.90;;;15.90;;
77026;SDS011;65956;52.986;17.490;2024-03-08T16:00:22;22.70;;;15.80;;
77026;SDS011;65956;52.986;17.490;2024-03-08T16:03:08;23.20;;;16.20;;
77026;SDS011;65956;52.986;17.490;2024-03-08T16:05:41;21.90;;;14.50;;
77026;SDS011;65956;52.986;17.490;2024-03-08T16:08:07;20.10;;;13.30;;
77026;SDS011;65956;52.986;17.490;2024-03-08T16:10:42;21.40;;;13.30;;
77026;SDS011;65956;52.986;17.490;2024-03-08T16:13:15;20.40;;;13.40;;
77026;SDS011;65956;52.986;17.490;2024-03-08T16:15:43;23.40;;;14.10;;
77026;SDS011;65956;52.986;17.490;2024-03-08T16:18:11;23.40;;;13.50;;
77026;SDS011;65956;52.986;17.490;2024-03-08T16:20:38;24.80;;;12.90;;
77026;SDS011;65956;52.986;17.490;2024-03-08T16:23:05;20.30;;;12.30;;
77026;SDS011;65956;52.986;17.490;2024-03-08T16:25:32;22.90;;;13.30;;
77026;SDS011;65956;52.986;17.490;2024-03-08T16:27:58;27.30;;;13.30;;
77026;SDS011;65956;52.986;17.490;2024-03-08T16:30:26;22.40;;;13.20;;
77026;SDS011;65956;52.986;17.490;2024-03-08T16:32:53;26.10;;;14.80;;
77026;SDS011;65956;52.986;17.490;2024-03-08T16:35:19;28.40;;;15.30;;
77026;SDS011;65956;52.986;17.490;2024-03-08T16:37:45;26.20;;;14.00;;
77026;SDS011;65956;52.986;17.490;2024-03-08T16:40:13;22.20;;;11.70;;
77026;SDS011;65956;52.986;17.490;2024-03-08T16:42:43;22.40;;;12.10;;
77026;SDS011;65956;52.986;17.490;2024-03-08T16:45:11;21.50;;;11.20;;
77026;SDS011;65956;52.986;17.490;2024-03-08T16:47:40;20.50;;;11.40;;
77026;SDS011;65956;52.986;17.490;2024-03-08T16:50:08;23.10;;;12.00;;
77026;SDS011;65956;52.986;17.490;2024-03-08T16:52:35;21.00;;;10.80;;
77026;SDS011;65956;52.986;17.490;2024-03-08T16:55:04;24.80;;;12.00;;
77026;SDS011;65956;52.986;17.490;2024-03-08T16:57:32;21.20;;;11.40;;
77026;SDS011;65956;52.986;17.490;2024-03-08T16:59:59;23.30;;;11.70;;
77026;SDS011;65956;52.986;17.490;2024-03-08T17:02:25;25.50;;;12.70;;
77026;SDS011;65956;52.986;17.490;2024-03-08T17:04:51;24.90;;;12.30;;
77026;SDS011;65956;52.986;17.490;2024-03-08T17:07:18;28.40;;;12.80;;
77026;SDS011;65956;52.986;17.490;2024-03-08T17:09:47;25.60;;;12.30;;
77026;SDS011;65956;52.986;17.490;2024-03-08T17:12:13;27.20;;;12.60;;
77026;SDS011;65956;52.986;17.490;2024-03-08T17:17:10;32.00;;;14.40;;